createdAt,value
2022-11-15T00:02:19.026Z,10.07
2022-11-15T00:04:40.338Z,10.40
2022-11-15T00:07:02.899Z,10.10
2022-11-15T00:09:23.883Z,10.27
2022-11-15T00:11:45.356Z,10.57
2022-11-15T00:14:06.545Z,10.87
2022-11-15T00:16:27.892Z,11.67
2022-11-15T00:18:50.847Z,14.27
2022-11-15T00:21:13.735Z,15.07
2022-11-15T00:23:36.184Z,15.57
2022-11-15T00:25:58.349Z,15.13
2022-11-15T00:28:19.352Z,12.87
2022-11-15T00:30:40.694Z,13.33
2022-11-15T00:33:03.656Z,16.47
2022-11-15T00:35:24.613Z,13.93
2022-11-15T00:37:45.953Z,14.90
2022-11-15T00:40:09.612Z,13.27
2022-11-15T00:42:30.873Z,13.70
2022-11-15T00:44:52.573Z,14.87
2022-11-15T00:47:13.806Z,15.47
2022-11-15T00:49:35.269Z,14.30
2022-11-15T00:51:56.651Z,13.73
2022-11-15T00:54:18.136Z,14.03
2022-11-15T00:56:40.798Z,13.80
2022-11-15T00:59:02.159Z,13.43
2022-11-15T01:01:23.861Z,13.63
2022-11-15T01:03:45.118Z,12.43
2022-11-15T01:06:06.982Z,13.47
2022-11-15T01:08:28.423Z,12.93
2022-11-15T01:10:49.693Z,12.50
2022-11-15T01:13:12.651Z,12.97
2022-11-15T01:15:33.646Z,14.17
2022-11-15T01:17:55.827Z,13.50
2022-11-15T01:20:16.975Z,14.90
2022-11-15T01:22:38.421Z,16.43
2022-11-15T01:24:59.892Z,15.27
2022-11-15T01:27:21.100Z,14.30
2022-11-15T01:29:43.843Z,14.53
2022-11-15T01:32:05.028Z,13.80
2022-11-15T01:34:26.300Z,17.10
2022-11-15T01:36:47.549Z,15.87
2022-11-15T01:39:09.892Z,16.03
2022-11-15T01:41:32.575Z,13.93
2022-11-15T01:43:55.086Z,12.30
2022-11-15T01:46:24.732Z,12.57
2022-11-15T01:48:45.946Z,13.27
2022-11-15T01:51:08.807Z,13.50
2022-11-15T01:53:30.908Z,12.37
2022-11-15T01:55:52.545Z,12.20
2022-11-15T01:58:13.550Z,12.33
2022-11-15T02:00:35.224Z,12.53
2022-11-15T02:02:57.811Z,13.50
2022-11-15T02:05:18.962Z,13.00
2022-11-15T02:07:40.010Z,11.93
2022-11-15T02:10:03.833Z,12.17
2022-11-15T02:12:25.292Z,13.03
2022-11-15T02:14:49.283Z,10.77
2022-11-15T02:17:18.492Z,12.20
2022-11-15T02:19:57.107Z,11.43
2022-11-15T02:22:26.601Z,12.03
2022-11-15T02:24:57.647Z,12.50
2022-11-15T02:27:28.779Z,12.83
2022-11-15T02:29:59.915Z,13.00
2022-11-15T02:32:24.126Z,13.40
2022-11-15T02:34:51.477Z,13.50
2022-11-15T02:37:15.646Z,14.13
2022-11-15T02:39:39.393Z,13.37
2022-11-15T02:42:04.103Z,14.10
2022-11-15T02:44:26.056Z,12.73
2022-11-15T02:47:07.622Z,14.03
2022-11-15T02:49:31.951Z,13.67
2022-11-15T02:51:54.374Z,13.13
2022-11-15T02:54:17.295Z,13.30
2022-11-15T02:56:38.607Z,12.80
2022-11-15T02:59:08.136Z,14.70
2022-11-15T03:01:34.992Z,13.17
2022-11-15T03:04:01.705Z,13.77
2022-11-15T03:06:28.469Z,15.03
2022-11-15T03:08:54.839Z,15.97
2022-11-15T03:11:17.010Z,13.40
2022-11-15T03:13:41.824Z,13.83
2022-11-15T03:16:05.083Z,12.50
2022-11-15T03:18:30.376Z,16.07
2022-11-15T03:20:52.509Z,12.10
2022-11-15T03:23:15.703Z,12.87
2022-11-15T03:25:38.659Z,13.27
2022-11-15T03:28:01.050Z,13.83
2022-11-15T03:30:22.504Z,14.50
2022-11-15T03:32:46.143Z,13.40
2022-11-15T03:35:09.221Z,12.77
2022-11-15T03:37:32.727Z,12.60
2022-11-15T03:39:55.409Z,13.17
2022-11-15T03:42:19.916Z,12.40
2022-11-15T03:44:43.631Z,13.37
2022-11-15T03:47:08.383Z,13.70
2022-11-15T03:49:31.478Z,12.40
2022-11-15T03:51:53.370Z,12.13
2022-11-15T03:54:14.744Z,12.03
2022-11-15T03:56:37.400Z,12.07
2022-11-15T03:58:58.438Z,12.37
2022-11-15T04:01:19.877Z,12.03
2022-11-15T04:03:41.231Z,11.73
2022-11-15T04:06:02.563Z,12.67
2022-11-15T04:08:23.658Z,13.47
2022-11-15T04:10:45.074Z,12.87
2022-11-15T04:13:07.816Z,14.10
2022-11-15T04:15:29.773Z,14.53
2022-11-15T04:17:51.329Z,13.23
2022-11-15T04:20:31.251Z,14.67
2022-11-15T04:23:11.819Z,14.07
2022-11-15T04:25:33.235Z,12.90
2022-11-15T04:27:54.171Z,14.30
2022-11-15T04:30:17.594Z,14.00
2022-11-15T04:32:38.799Z,13.73
2022-11-15T04:35:00.020Z,12.53
2022-11-15T04:37:21.188Z,14.37
2022-11-15T04:39:42.244Z,13.40
2022-11-15T04:42:03.371Z,13.13
2022-11-15T04:44:24.747Z,13.67
2022-11-15T04:46:47.227Z,14.10
2022-11-15T04:49:08.233Z,13.77
2022-11-15T04:51:29.482Z,13.73
2022-11-15T04:53:50.900Z,12.93
2022-11-15T04:56:12.202Z,13.03
2022-11-15T04:58:33.839Z,12.97
2022-11-15T05:00:55.500Z,11.60
2022-11-15T05:03:50.694Z,13.50
2022-11-15T05:06:11.904Z,13.10
2022-11-15T05:08:32.954Z,11.77
2022-11-15T05:10:54.316Z,13.23
2022-11-15T05:13:15.851Z,13.60
2022-11-15T05:15:36.964Z,13.23
2022-11-15T05:17:59.892Z,12.47
2022-11-15T05:20:22.988Z,12.60
2022-11-15T05:22:44.187Z,12.23
2022-11-15T05:25:06.301Z,13.60
2022-11-15T05:27:27.436Z,12.50
2022-11-15T05:29:48.731Z,11.60
2022-11-15T05:32:10.755Z,12.13
2022-11-15T05:34:32.202Z,12.80
2022-11-15T05:36:54.713Z,12.33
2022-11-15T05:39:16.394Z,13.77
2022-11-15T05:41:39.385Z,12.63
2022-11-15T05:44:02.116Z,11.93
2022-11-15T05:46:23.354Z,13.07
2022-11-15T05:48:47.070Z,14.43
2022-11-15T05:51:08.736Z,14.17
2022-11-15T05:53:32.332Z,15.07
2022-11-15T05:55:53.572Z,14.40
2022-11-15T05:58:15.016Z,14.53
2022-11-15T06:00:36.186Z,14.63
2022-11-15T06:02:57.410Z,14.67
2022-11-15T06:05:18.563Z,13.33
2022-11-15T06:07:39.856Z,15.83
2022-11-15T06:10:02.480Z,14.23
2022-11-15T06:12:23.715Z,13.93
2022-11-15T06:14:45.022Z,13.70
2022-11-15T06:17:11.194Z,14.87
2022-11-15T06:19:33.939Z,14.23
2022-11-15T06:21:55.396Z,13.57
2022-11-15T06:24:17.040Z,15.20
2022-11-15T06:26:39.582Z,13.07
2022-11-15T06:29:00.925Z,14.47
2022-11-15T06:31:22.036Z,13.77
2022-11-15T06:33:43.037Z,15.73
2022-11-15T06:36:04.415Z,14.97
2022-11-15T06:38:25.777Z,12.30
2022-11-15T06:40:47.234Z,20.53
2022-11-15T06:43:09.828Z,21.93
2022-11-15T06:45:31.244Z,21.53
2022-11-15T06:47:52.235Z,17.07
2022-11-15T06:50:13.476Z,15.57
2022-11-15T06:52:34.952Z,13.50
2022-11-15T06:54:56.083Z,15.03
2022-11-15T06:57:17.588Z,14.50
2022-11-15T06:59:40.893Z,15.73
2022-11-15T07:02:02.061Z,14.23
2022-11-15T07:04:23.126Z,13.20
2022-11-15T07:06:44.369Z,15.33
2022-11-15T07:09:05.813Z,14.80
2022-11-15T07:11:26.927Z,15.13
2022-11-15T07:13:48.242Z,14.70
2022-11-15T07:16:12.006Z,15.33
2022-11-15T07:18:33.324Z,13.53
2022-11-15T07:20:54.643Z,13.57
2022-11-15T07:23:15.869Z,12.57
2022-11-15T07:25:37.224Z,15.83
2022-11-15T07:27:58.953Z,15.00
2022-11-15T07:30:21.151Z,17.10
2022-11-15T07:32:43.983Z,18.00
2022-11-15T07:35:05.660Z,22.87
2022-11-15T07:37:27.149Z,25.00
2022-11-15T07:39:48.307Z,26.60
2022-11-15T07:42:26.986Z,23.10
2022-11-15T07:44:48.198Z,18.77
2022-11-15T07:47:09.540Z,18.13
2022-11-15T07:49:32.116Z,19.10
2022-11-15T07:51:53.063Z,17.33
2022-11-15T07:54:14.311Z,19.50
2022-11-15T07:56:35.696Z,18.53
2022-11-15T07:58:57.004Z,17.40
2022-11-15T08:01:18.439Z,18.10
2022-11-15T08:03:40.100Z,18.57
2022-11-15T08:06:02.589Z,17.83
2022-11-15T08:08:23.588Z,18.77
2022-11-15T08:10:45.038Z,13.33
2022-11-15T08:13:07.262Z,15.17
2022-11-15T08:15:28.730Z,19.27
2022-11-15T08:17:54.812Z,18.33
2022-11-15T08:20:16.307Z,14.00
2022-11-15T08:22:38.669Z,14.20
2022-11-15T08:24:59.937Z,16.47
2022-11-15T08:27:21.303Z,15.03
2022-11-15T08:29:42.682Z,17.03
2022-11-15T08:32:03.938Z,15.27
2022-11-15T08:34:25.403Z,17.10
2022-11-15T08:36:47.028Z,12.63
2022-11-15T08:39:12.093Z,14.47
2022-11-15T08:41:33.945Z,13.57
2022-11-15T08:43:55.243Z,13.63
2022-11-15T08:46:16.489Z,12.60
2022-11-15T08:48:37.723Z,11.97
2022-11-15T08:50:59.109Z,12.53
2022-11-15T08:53:20.603Z,13.13
2022-11-15T08:55:43.183Z,11.33
2022-11-15T08:58:04.275Z,11.50
2022-11-15T09:00:25.888Z,12.37
2022-11-15T09:02:47.173Z,13.23
2022-11-15T09:05:08.723Z,15.97
2022-11-15T09:07:31.677Z,15.03
2022-11-15T09:09:52.948Z,16.87
2022-11-15T09:12:16.839Z,15.93
2022-11-15T09:14:37.836Z,14.30
2022-11-15T09:16:59.211Z,12.43
2022-11-15T09:19:20.198Z,12.37
2022-11-15T09:21:41.786Z,17.87
2022-11-15T09:24:03.610Z,12.53
2022-11-15T09:26:24.565Z,18.50
2022-11-15T09:28:50.602Z,14.20
2022-11-15T09:31:12.150Z,17.63
2022-11-15T09:33:33.586Z,15.53
2022-11-15T09:35:55.953Z,13.17
2022-11-15T09:38:20.514Z,15.70
2022-11-15T09:40:41.739Z,15.20
2022-11-15T09:43:26.175Z,13.53
2022-11-15T09:45:57.351Z,12.57
2022-11-15T09:48:28.474Z,11.30
2022-11-15T09:50:50.417Z,14.27
2022-11-15T09:53:14.030Z,14.50
2022-11-15T09:55:40.460Z,16.10
2022-11-15T09:58:05.458Z,14.70
2022-11-15T10:00:47.594Z,15.63
2022-11-15T10:03:12.656Z,14.87
2022-11-15T10:05:34.522Z,13.40
2022-11-15T10:07:59.311Z,17.77
2022-11-15T10:10:25.896Z,14.50
2022-11-15T10:12:49.903Z,14.93
2022-11-15T10:15:14.486Z,17.77
2022-11-15T10:17:51.636Z,14.80
2022-11-15T10:20:18.301Z,15.03
2022-11-15T10:22:42.067Z,13.93
2022-11-15T10:25:13.254Z,12.83
2022-11-15T10:27:34.978Z,11.57
2022-11-15T10:29:56.305Z,14.60
2022-11-15T10:32:18.713Z,11.90
2022-11-15T10:34:40.016Z,15.90
2022-11-15T10:37:02.974Z,12.73
2022-11-15T10:39:24.820Z,12.43
2022-11-15T10:41:46.066Z,12.57
2022-11-15T10:44:24.342Z,12.70
2022-11-15T10:46:49.592Z,12.10
2022-11-15T10:49:15.031Z,12.67
2022-11-15T10:51:42.466Z,12.80
2022-11-15T10:54:12.312Z,13.23
2022-11-15T10:56:38.591Z,12.77
2022-11-15T10:59:00.134Z,10.77
2022-11-15T11:01:23.918Z,11.63
2022-11-15T11:03:46.407Z,18.23
2022-11-15T11:06:09.146Z,11.27
2022-11-15T11:08:30.467Z,13.23
2022-11-15T11:11:02.120Z,11.97
2022-11-15T11:13:25.668Z,11.60
2022-11-15T11:15:47.902Z,13.60
2022-11-15T11:18:11.191Z,15.23
2022-11-15T11:20:35.826Z,13.23
2022-11-15T11:23:03.024Z,12.40
2022-11-15T11:25:31.414Z,13.97
2022-11-15T11:28:01.489Z,13.20
2022-11-15T11:30:27.148Z,12.40
2022-11-15T11:32:55.488Z,10.37
2022-11-15T11:35:22.223Z,10.53
2022-11-15T11:37:47.805Z,13.00
2022-11-15T11:40:16.377Z,10.67
2022-11-15T11:42:40.763Z,9.70
2022-11-15T11:45:07.839Z,10.87
2022-11-15T11:47:34.439Z,12.20
2022-11-15T11:49:58.219Z,10.70
2022-11-15T11:52:23.062Z,9.80
2022-11-15T11:54:48.287Z,12.83
2022-11-15T11:57:13.504Z,11.00
2022-11-15T11:59:39.294Z,11.33
2022-11-15T12:02:04.935Z,9.80
2022-11-15T12:04:29.585Z,8.80
2022-11-15T12:06:52.760Z,10.47
2022-11-15T12:09:16.566Z,8.30
2022-11-15T12:11:39.475Z,7.00
2022-11-15T12:14:02.464Z,7.93
2022-11-15T12:16:25.687Z,7.47
2022-11-15T12:18:50.477Z,8.77
2022-11-15T12:21:16.608Z,9.50
2022-11-15T12:23:41.432Z,11.67
2022-11-15T12:26:05.031Z,9.27
2022-11-15T12:28:33.437Z,8.53
2022-11-15T12:30:58.090Z,7.53
2022-11-15T12:33:32.658Z,8.23
2022-11-15T12:36:01.993Z,8.30
2022-11-15T12:38:38.012Z,7.50
2022-11-15T12:41:14.557Z,6.50
2022-11-15T12:43:40.778Z,6.93
2022-11-15T12:46:04.547Z,6.83
2022-11-15T12:48:59.201Z,6.93
2022-11-15T12:51:23.103Z,6.17
2022-11-15T12:53:44.215Z,6.50
2022-11-15T12:56:26.697Z,5.93
2022-11-15T12:58:48.971Z,7.43
2022-11-15T13:01:10.707Z,8.33
2022-11-15T13:03:32.229Z,6.67
2022-11-15T13:06:09.682Z,6.03
2022-11-15T13:08:51.923Z,6.50
2022-11-15T13:11:32.130Z,6.77
2022-11-15T13:13:53.858Z,5.70
2022-11-15T13:16:20.005Z,6.77
2022-11-15T13:18:42.039Z,6.23
2022-11-15T13:21:24.219Z,5.97
2022-11-15T13:23:47.307Z,6.13
2022-11-15T13:26:13.798Z,6.57
2022-11-15T13:28:36.149Z,6.13
2022-11-15T13:30:58.001Z,6.47
2022-11-15T13:33:21.656Z,6.33
2022-11-15T13:35:43.278Z,5.67
2022-11-15T13:38:05.743Z,8.00
2022-11-15T13:40:31.301Z,5.17
2022-11-15T13:42:53.816Z,5.00
2022-11-15T13:45:16.963Z,7.23
2022-11-15T13:47:37.934Z,4.50
2022-11-15T13:49:59.555Z,6.87
2022-11-15T13:52:30.522Z,10.07
2022-11-15T13:54:56.289Z,6.53
2022-11-15T13:57:20.820Z,5.50
2022-11-15T13:59:49.421Z,5.47
2022-11-15T14:02:14.122Z,7.83
2022-11-15T14:04:42.240Z,5.97
2022-11-15T14:07:03.836Z,6.10
2022-11-15T14:09:33.714Z,5.30
2022-11-15T14:11:55.987Z,5.43
2022-11-15T14:14:17.420Z,6.80
2022-11-15T14:16:40.959Z,7.90
2022-11-15T14:19:02.099Z,5.67
2022-11-15T14:21:23.281Z,7.40
2022-11-15T14:23:44.532Z,6.33
2022-11-15T14:26:11.551Z,5.47
2022-11-15T14:28:37.531Z,5.57
2022-11-15T14:30:59.533Z,5.80
2022-11-15T14:33:23.636Z,4.93
2022-11-15T14:35:44.612Z,5.03
2022-11-15T14:38:06.105Z,5.60
2022-11-15T14:40:27.225Z,6.50
2022-11-15T14:42:49.388Z,8.03
2022-11-15T14:45:13.984Z,6.17
2022-11-15T14:47:34.936Z,6.33
2022-11-15T14:49:57.687Z,7.33
2022-11-15T14:52:30.382Z,5.60
2022-11-15T14:54:53.436Z,5.33
2022-11-15T14:57:14.767Z,6.90
2022-11-15T14:59:36.173Z,6.43
2022-11-15T15:01:57.507Z,5.50
2022-11-15T15:04:18.850Z,9.40
2022-11-15T15:06:41.742Z,6.10
2022-11-15T15:09:02.931Z,6.10
2022-11-15T15:11:25.427Z,7.23
2022-11-15T15:13:46.578Z,8.37
2022-11-15T15:16:07.995Z,9.60
2022-11-15T15:18:29.472Z,9.60
2022-11-15T15:20:53.161Z,10.23
2022-11-15T15:23:19.758Z,8.03
2022-11-15T15:25:41.496Z,8.67
2022-11-15T15:28:02.642Z,8.20
2022-11-15T15:30:24.075Z,10.37
2022-11-15T15:32:45.156Z,29.53
2022-11-15T15:35:06.863Z,15.17
2022-11-15T15:37:28.461Z,13.27
2022-11-15T15:39:51.031Z,26.10
2022-11-15T15:42:12.253Z,25.33
2022-11-15T15:44:33.572Z,19.47
2022-11-15T15:46:54.879Z,12.93
2022-11-15T15:49:16.354Z,14.73
2022-11-15T15:51:37.510Z,10.00
2022-11-15T15:53:59.271Z,8.83
2022-11-15T15:56:22.211Z,10.70
2022-11-15T15:58:43.380Z,12.27
2022-11-15T16:01:04.925Z,8.80
2022-11-15T16:03:25.946Z,12.17
2022-11-15T16:05:47.441Z,18.60
2022-11-15T16:08:11.794Z,21.80
2022-11-15T16:10:34.638Z,29.20
2022-11-15T16:12:57.627Z,21.83
2022-11-15T16:15:19.155Z,18.23
2022-11-15T16:17:41.970Z,17.50
2022-11-15T16:20:03.514Z,14.57
2022-11-15T16:22:24.833Z,12.07
2022-11-15T16:24:46.253Z,11.47
2022-11-15T16:27:07.765Z,10.03
2022-11-15T16:29:30.726Z,11.33
2022-11-15T16:31:51.885Z,11.63
2022-11-15T16:34:13.054Z,10.50
2022-11-15T16:36:35.013Z,10.13
2022-11-15T16:38:56.619Z,19.97
2022-11-15T16:41:19.297Z,12.73
2022-11-15T16:43:40.462Z,10.43
2022-11-15T16:46:12.424Z,8.53
2022-11-15T16:48:35.096Z,12.47
2022-11-15T16:50:57.177Z,9.57
2022-11-15T16:53:18.522Z,8.97
2022-11-15T16:55:39.887Z,12.93
2022-11-15T16:58:01.793Z,12.73
2022-11-15T17:00:23.103Z,13.73
2022-11-15T17:02:46.632Z,11.37
2022-11-15T17:05:11.866Z,13.23
2022-11-15T17:07:34.702Z,11.23
2022-11-15T17:09:55.892Z,13.13
2022-11-15T17:12:17.384Z,12.17
2022-11-15T17:14:38.563Z,8.07
2022-11-15T17:16:59.899Z,7.97
2022-11-15T17:19:22.456Z,11.47
2022-11-15T17:21:43.991Z,11.97
2022-11-15T17:24:05.358Z,9.60
2022-11-15T17:26:33.049Z,10.27
2022-11-15T17:28:55.923Z,16.30
2022-11-15T17:31:17.347Z,11.70
2022-11-15T17:33:39.104Z,13.67
2022-11-15T17:36:02.214Z,12.80
2022-11-15T17:38:23.177Z,13.27
2022-11-15T17:40:44.433Z,12.40
2022-11-15T17:43:06.778Z,11.80
2022-11-15T17:45:28.100Z,9.50
2022-11-15T17:47:49.542Z,10.70
2022-11-15T17:50:12.899Z,9.93
2022-11-15T17:52:35.556Z,10.37
2022-11-15T17:54:56.792Z,14.50
2022-11-15T17:57:17.963Z,46.37
2022-11-15T17:59:39.403Z,41.90
2022-11-15T18:02:00.760Z,27.33
2022-11-15T18:04:21.910Z,18.47
2022-11-15T18:06:43.238Z,9.07
2022-11-15T18:09:07.190Z,8.60
2022-11-15T18:11:29.129Z,8.40
2022-11-15T18:13:52.359Z,8.93
2022-11-15T18:16:14.525Z,8.60
2022-11-15T18:18:36.823Z,11.90
2022-11-15T18:21:05.415Z,8.83
2022-11-15T18:23:26.902Z,25.60
2022-11-15T18:25:53.477Z,18.03
2022-11-15T18:28:14.370Z,16.00
2022-11-15T18:30:35.631Z,15.10
2022-11-15T18:32:56.990Z,13.07
2022-11-15T18:35:17.874Z,15.00
2022-11-15T18:37:39.183Z,30.80
2022-11-15T18:40:00.386Z,22.53
2022-11-15T18:42:22.999Z,19.03
2022-11-15T18:44:43.928Z,15.13
2022-11-15T18:47:05.171Z,11.93
2022-11-15T18:49:26.673Z,12.07
2022-11-15T18:51:48.015Z,11.90
2022-11-15T18:54:10.567Z,10.23
2022-11-15T18:56:32.843Z,16.93
2022-11-15T18:58:56.796Z,42.60
2022-11-15T19:01:18.896Z,24.37
2022-11-15T19:03:41.097Z,18.33
2022-11-15T19:06:02.678Z,13.93
2022-11-15T19:08:23.831Z,12.43
2022-11-15T19:10:45.023Z,11.17
2022-11-15T19:13:06.627Z,11.20
2022-11-15T19:15:29.487Z,13.97
2022-11-15T19:17:50.906Z,10.63
2022-11-15T19:20:12.756Z,12.20
2022-11-15T19:22:34.046Z,13.77
2022-11-15T19:24:55.692Z,14.93
2022-11-15T19:27:17.611Z,27.97
2022-11-15T19:29:38.873Z,27.67
2022-11-15T19:32:02.155Z,25.53
2022-11-15T19:34:23.466Z,26.33
2022-11-15T19:36:45.284Z,26.07
2022-11-15T19:39:10.185Z,23.20
2022-11-15T19:41:31.731Z,23.57
2022-11-15T19:43:53.332Z,23.60
2022-11-15T19:46:15.312Z,18.80
2022-11-15T19:48:37.918Z,18.33
2022-11-15T19:51:01.045Z,15.57
2022-11-15T19:53:24.405Z,17.17
2022-11-15T19:55:54.537Z,14.27
2022-11-15T19:58:15.821Z,15.73
2022-11-15T20:00:37.221Z,19.23
2022-11-15T20:02:58.629Z,21.03
2022-11-15T20:05:21.499Z,19.27
2022-11-15T20:07:42.573Z,18.77
2022-11-15T20:10:03.837Z,14.93
2022-11-15T20:12:25.151Z,14.97
2022-11-15T20:14:46.635Z,15.07
2022-11-15T20:17:07.636Z,12.83
2022-11-15T20:19:28.734Z,15.43
2022-11-15T20:21:51.464Z,19.83
2022-11-15T20:24:12.470Z,15.07
2022-11-15T20:26:33.801Z,12.70
2022-11-15T20:29:18.696Z,11.70
2022-11-15T20:31:39.741Z,13.53
2022-11-15T20:34:01.380Z,21.13
2022-11-15T20:36:22.278Z,15.43
2022-11-15T20:38:45.140Z,16.97
2022-11-15T20:41:06.758Z,14.23
2022-11-15T20:43:30.550Z,13.10
2022-11-15T20:45:52.074Z,12.97
2022-11-15T20:48:13.795Z,13.63
2022-11-15T20:50:42.777Z,14.20
2022-11-15T20:53:04.845Z,12.77
2022-11-15T20:55:27.223Z,13.93
2022-11-15T20:57:48.876Z,12.93
2022-11-15T21:00:10.968Z,17.57
2022-11-15T21:02:32.748Z,19.50
2022-11-15T21:04:54.220Z,17.47
2022-11-15T21:07:18.710Z,18.00
2022-11-15T21:09:57.710Z,18.27
2022-11-15T21:12:20.611Z,16.20
2022-11-15T21:14:42.288Z,14.40
2022-11-15T21:17:03.575Z,16.40
2022-11-15T21:19:28.995Z,15.67
2022-11-15T21:21:53.480Z,13.30
2022-11-15T21:24:14.945Z,15.37
2022-11-15T21:26:38.116Z,12.77
2022-11-15T21:29:00.893Z,16.17
2022-11-15T21:31:22.912Z,13.33
2022-11-15T21:33:43.919Z,11.83
2022-11-15T21:36:05.485Z,14.87
2022-11-15T21:38:28.797Z,14.30
2022-11-15T21:40:49.757Z,11.77
2022-11-15T21:43:11.083Z,13.27
2022-11-15T21:45:33.752Z,11.50
2022-11-15T21:47:55.087Z,12.63
2022-11-15T21:50:17.988Z,11.70
2022-11-15T21:52:39.335Z,12.37
2022-11-15T21:55:00.475Z,13.80
2022-11-15T21:57:21.866Z,14.47
2022-11-15T21:59:56.687Z,12.83
2022-11-15T22:02:19.214Z,12.03
2022-11-15T22:04:40.593Z,12.50
2022-11-15T22:07:01.591Z,11.57
2022-11-15T22:09:22.619Z,12.57
2022-11-15T22:11:43.743Z,35.10
2022-11-15T22:14:05.062Z,29.80
2022-11-15T22:16:26.704Z,49.70
2022-11-15T22:18:49.241Z,53.77
2022-11-15T22:21:11.374Z,67.70
2022-11-15T22:23:33.893Z,55.50
2022-11-15T22:25:55.435Z,129.03
2022-11-15T22:28:16.738Z,130.67
2022-11-15T22:30:38.094Z,35.43
2022-11-15T22:32:59.331Z,17.60
2022-11-15T22:35:22.140Z,26.90
2022-11-15T22:37:43.171Z,28.30
2022-11-15T22:40:04.882Z,32.90
2022-11-15T22:42:26.154Z,50.10
2022-11-15T22:44:47.481Z,37.50
2022-11-15T22:47:08.719Z,34.80
2022-11-15T22:49:30.044Z,26.80
2022-11-15T22:51:52.763Z,62.80
2022-11-15T22:54:13.870Z,44.93
2022-11-15T22:56:35.445Z,44.80
2022-11-15T22:58:56.854Z,27.27
2022-11-15T23:01:20.507Z,29.40
2022-11-15T23:03:42.007Z,20.03
2022-11-15T23:06:03.738Z,20.13
2022-11-15T23:08:26.339Z,21.60
2022-11-15T23:11:05.025Z,19.40
2022-11-15T23:13:27.042Z,16.87
2022-11-15T23:16:09.081Z,16.97
2022-11-15T23:18:30.692Z,15.10
2022-11-15T23:20:52.075Z,16.00
2022-11-15T23:23:12.806Z,13.77
2022-11-15T23:25:35.481Z,14.33
2022-11-15T23:27:56.834Z,15.70
2022-11-15T23:30:36.091Z,17.57
2022-11-15T23:33:15.034Z,15.70
2022-11-15T23:35:36.560Z,16.07
2022-11-15T23:37:57.705Z,13.90
2022-11-15T23:40:19.286Z,17.60
2022-11-15T23:42:42.268Z,14.90
2022-11-15T23:45:03.583Z,16.87
2022-11-15T23:47:24.702Z,18.33
2022-11-15T23:49:46.112Z,14.47
2022-11-15T23:52:07.429Z,16.00
2022-11-15T23:54:28.763Z,17.90
2022-11-15T23:56:50.422Z,14.87
2022-11-15T23:59:13.031Z,14.73
